sensor_id;sensor_type;location;lat;lon;timestamp;pressure;altitude;pressure_sealevel;temperature;humidity
18137;BME280;9194;42.632;23.298;2024-02-21T00:00:21;93181.56;;;4.32;100.00
18137;BME280;9194;42.632;23.298;2024-02-21T00:05:22;93187.69;;;4.31;100.00
18137;BME280;9194;42.632;23.298;2024-02-21T00:10:24;93182.53;;;4.31;100.00
18137;BME280;9194;42.632;23.298;2024-02-21T00:15:26;93175.16;;;4.28;100.00
18137;BME280;9194;42.632;23.298;2024-02-21T00:20:27;93170.03;;;4.20;100.00
18137;BME280;9194;42.632;23.298;2024-02-21T00:25:28;93173.56;;;4.27;100.00
18137;BME280;9194;42.632;23.298;2024-02-21T00:30:29;93177.59;;;4.30;100.00
18137;BME280;9194;42.632;23.298;2024-02-21T00:35:30;93165.59;;;4.37;100.00
18137;BME280;9194;42.632;23.298;2024-02-21T00:40:32;93170.88;;;4.43;100.00
18137;BME280;9194;42.632;23.298;2024-02-21T00:45:33;93167.22;;;4.38;100.00
18137;BME280;9194;42.632;23.298;2024-02-21T00:50:34;93159.59;;;4.44;100.00
18137;BME280;9194;42.632;23.298;2024-02-21T00:55:35;93164.91;;;4.43;100.00
18137;BME280;9194;42.632;23.298;2024-02-21T01:00:36;93149.81;;;4.40;100.00
18137;BME280;9194;42.632;23.298;2024-02-21T01:05:38;93140.94;;;4.42;100.00
18137;BME280;9194;42.632;23.298;2024-02-21T01:10:39;93136.13;;;4.39;100.00
18137;BME280;9194;42.632;23.298;2024-02-21T01:15:40;93135.00;;;4.42;100.00
18137;BME280;9194;42.632;23.298;2024-02-21T01:20:41;93136.06;;;4.47;100.00
18137;BME280;9194;42.632;23.298;2024-02-21T01:25:43;93132.69;;;4.47;100.00
18137;BME280;9194;42.632;23.298;2024-02-21T01:30:44;93135.72;;;4.50;100.00
18137;BME280;9194;42.632;23.298;2024-02-21T01:35:45;93116.59;;;4.45;100.00
18137;BME280;9194;42.632;23.298;2024-02-21T01:40:46;93127.97;;;4.50;100.00
18137;BME280;9194;42.632;23.298;2024-02-21T01:45:49;93120.13;;;4.44;100.00
18137;BME280;9194;42.632;23.298;2024-02-21T01:50:51;93115.66;;;4.38;100.00
18137;BME280;9194;42.632;23.298;2024-02-21T01:55:53;93119.41;;;4.35;100.00
18137;BME280;9194;42.632;23.298;2024-02-21T02:00:56;93120.81;;;4.38;100.00
18137;BME280;9194;42.632;23.298;2024-02-21T02:05:57;93110.59;;;4.30;100.00
18137;BME280;9194;42.632;23.298;2024-02-21T02:10:59;93114.97;;;4.21;100.00
18137;BME280;9194;42.632;23.298;2024-02-21T02:16:00;93114.41;;;4.34;100.00
18137;BME280;9194;42.632;23.298;2024-02-21T02:21:03;93103.94;;;4.35;100.00
18137;BME280;9194;42.632;23.298;2024-02-21T02:26:05;93098.72;;;4.43;100.00
18137;BME280;9194;42.632;23.298;2024-02-21T02:31:08;93097.91;;;4.43;100.00
18137;BME280;9194;42.632;23.298;2024-02-21T02:36:09;93093.97;;;4.32;100.00
18137;BME280;9194;42.632;23.298;2024-02-21T02:41:10;93085.81;;;4.43;100.00
18137;BME280;9194;42.632;23.298;2024-02-21T02:46:12;93083.22;;;4.29;100.00
18137;BME280;9194;42.632;23.298;2024-02-21T02:51:13;93089.84;;;4.23;100.00
18137;BME280;9194;42.632;23.298;2024-02-21T02:56:17;93099.06;;;4.18;100.00
18137;BME280;9194;42.632;23.298;2024-02-21T03:01:18;93097.88;;;4.28;100.00
18137;BME280;9194;42.632;23.298;2024-02-21T03:06:19;93102.84;;;4.30;100.00
18137;BME280;9194;42.632;23.298;2024-02-21T03:11:21;93106.53;;;4.35;100.00
18137;BME280;9194;42.632;23.298;2024-02-21T03:16:29;93111.47;;;4.37;100.00
18137;BME280;9194;42.632;23.298;2024-02-21T03:21:30;93103.25;;;4.41;100.00
18137;BME280;9194;42.632;23.298;2024-02-21T03:26:32;93114.28;;;4.27;100.00
18137;BME280;9194;42.632;23.298;2024-02-21T03:31:33;93121.06;;;4.28;100.00
18137;BME280;9194;42.632;23.298;2024-02-21T03:36:35;93118.22;;;4.15;100.00
18137;BME280;9194;42.632;23.298;2024-02-21T03:41:36;93128.22;;;4.18;100.00
18137;BME280;9194;42.632;23.298;2024-02-21T03:46:37;93125.00;;;4.16;100.00
18137;BME280;9194;42.632;23.298;2024-02-21T03:51:38;93125.97;;;4.15;100.00
18137;BME280;9194;42.632;23.298;2024-02-21T03:56:40;93128.81;;;4.20;100.00
18137;BME280;9194;42.632;23.298;2024-02-21T04:01:42;93125.00;;;4.16;100.00
18137;BME280;9194;42.632;23.298;2024-02-21T04:06:50;93126.59;;;4.17;100.00
18137;BME280;9194;42.632;23.298;2024-02-21T04:11:51;93121.78;;;4.14;100.00
18137;BME280;9194;42.632;23.298;2024-02-21T04:16:52;93114.41;;;4.11;100.00
18137;BME280;9194;42.632;23.298;2024-02-21T04:21:54;93121.78;;;4.14;100.00
18137;BME280;9194;42.632;23.298;2024-02-21T04:26:55;93122.13;;;4.11;100.00
18137;BME280;9194;42.632;23.298;2024-02-21T04:31:56;93116.19;;;4.02;100.00
18137;BME280;9194;42.632;23.298;2024-02-21T04:36:57;93124.16;;;3.93;100.00
18137;BME280;9194;42.632;23.298;2024-02-21T04:41:59;93122.22;;;3.95;100.00
18137;BME280;9194;42.632;23.298;2024-02-21T04:47:00;93128.59;;;3.76;100.00
18137;BME280;9194;42.632;23.298;2024-02-21T04:52:02;93133.94;;;3.66;100.00
18137;BME280;9194;42.632;23.298;2024-02-21T04:57:03;93129.13;;;3.55;100.00
18137;BME280;9194;42.632;23.298;2024-02-21T05:02:05;93122.75;;;3.43;100.00
18137;BME280;9194;42.632;23.298;2024-02-21T05:07:06;93129.19;;;3.47;100.00
18137;BME280;9194;42.632;23.298;2024-02-21T05:12:07;93134.31;;;3.47;100.00
18137;BME280;9194;42.632;23.298;2024-02-21T05:17:09;93149.41;;;3.50;100.00
18137;BME280;9194;42.632;23.298;2024-02-21T05:22:10;93143.97;;;3.53;100.00
18137;BME280;9194;42.632;23.298;2024-02-21T05:27:12;93143.28;;;3.59;100.00
18137;BME280;9194;42.632;23.298;2024-02-21T05:32:13;93143.22;;;3.76;100.00
18137;BME280;9194;42.632;23.298;2024-02-21T05:37:14;93144.16;;;3.83;100.00
18137;BME280;9194;42.632;23.298;2024-02-21T05:42:16;93141.81;;;4.04;100.00
18137;BME280;9194;42.632;23.298;2024-02-21T05:47:17;93136.56;;;4.20;100.00
18137;BME280;9194;42.632;23.298;2024-02-21T05:52:21;93143.22;;;4.37;100.00
18137;BME280;9194;42.632;23.298;2024-02-21T05:57:23;93151.53;;;4.47;100.00
18137;BME280;9194;42.632;23.298;2024-02-21T06:02:24;93134.97;;;4.65;100.00
18137;BME280;9194;42.632;23.298;2024-02-21T06:07:25;93158.59;;;4.76;100.00
18137;BME280;9194;42.632;23.298;2024-02-21T06:12:27;93155.75;;;4.86;100.00
18137;BME280;9194;42.632;23.298;2024-02-21T06:17:28;93161.59;;;5.03;100.00
18137;BME280;9194;42.632;23.298;2024-02-21T06:22:30;93174.16;;;5.20;100.00
18137;BME280;9194;42.632;23.298;2024-02-21T06:27:31;93174.66;;;5.38;100.00
18137;BME280;9194;42.632;23.298;2024-02-21T06:32:32;93175.44;;;5.39;100.00
18137;BME280;9194;42.632;23.298;2024-02-21T06:37:34;93179.09;;;5.45;100.00
18137;BME280;9194;42.632;23.298;2024-02-21T06:42:35;93173.56;;;5.48;100.00
18137;BME280;9194;42.632;23.298;2024-02-21T06:47:36;93186.16;;;5.65;100.00
18137;BME280;9194;42.632;23.298;2024-02-21T06:52:38;93175.75;;;5.59;100.00
18137;BME280;9194;42.632;23.298;2024-02-21T06:57:39;93204.41;;;5.78;100.00
18137;BME280;9194;42.632;23.298;2024-02-21T07:02:40;93196.72;;;5.93;100.00
18137;BME280;9194;42.632;23.298;2024-02-21T07:07:41;93188.25;;;5.99;100.00
18137;BME280;9194;42.632;23.298;2024-02-21T07:12:42;93186.56;;;5.92;100.00
18137;BME280;9194;42.632;23.298;2024-02-21T07:17:44;93194.13;;;5.93;100.00
18137;BME280;9194;42.632;23.298;2024-02-21T07:22:45;93195.66;;;5.88;100.00
18137;BME280;9194;42.632;23.298;2024-02-21T07:27:47;93204.25;;;5.80;100.00
18137;BME280;9194;42.632;23.298;2024-02-21T07:32:51;93206.69;;;5.96;100.00
18137;BME280;9194;42.632;23.298;2024-02-21T07:37:52;93206.03;;;5.94;100.00
18137;BME280;9194;42.632;23.298;2024-02-21T07:42:53;93202.31;;;6.11;100.00
18137;BME280;9194;42.632;23.298;2024-02-21T07:47:54;93195.25;;;6.20;100.00
18137;BME280;9194;42.632;23.298;2024-02-21T07:52:56;93202.47;;;6.25;100.00
18137;BME280;9194;42.632;23.298;2024-02-21T07:57:57;93192.22;;;6.52;100.00
18137;BME280;9194;42.632;23.298;2024-02-21T08:02:58;93197.94;;;6.84;100.00
18137;BME280;9194;42.632;23.298;2024-02-21T08:07:59;93189.63;;;6.88;100.00
18137;BME280;9194;42.632;23.298;2024-02-21T08:13:00;93188.16;;;7.22;100.00
18137;BME280;9194;42.632;23.298;2024-02-21T08:18:03;93181.72;;;7.39;100.00
18137;BME280;9194;42.632;23.298;2024-02-21T08:23:04;93182.28;;;7.62;100.00
18137;BME280;9194;42.632;23.298;2024-02-21T08:28:06;93178.06;;;7.61;100.00
18137;BME280;9194;42.632;23.298;2024-02-21T08:33:08;93178.03;;;7.55;98.14
18137;BME280;9194;42.632;23.298;2024-02-21T08:38:09;93180.50;;;7.69;97.67
18137;BME280;9194;42.632;23.298;2024-02-21T08:43:11;93180.91;;;8.01;91.10
18137;BME280;9194;42.632;23.298;2024-02-21T08:48:12;93176.28;;;8.31;93.23
18137;BME280;9194;42.632;23.298;2024-02-21T08:53:13;93183.59;;;8.27;86.48
18137;BME280;9194;42.632;23.298;2024-02-21T08:58:15;93187.00;;;8.27;88.77
18137;BME280;9194;42.632;23.298;2024-02-21T09:03:16;93185.94;;;8.56;88.59
18137;BME280;9194;42.632;23.298;2024-02-21T09:08:18;93186.31;;;8.06;90.37
18137;BME280;9194;42.632;23.298;2024-02-21T09:13:20;93192.09;;;8.42;91.01
18137;BME280;9194;42.632;23.298;2024-02-21T09:18:21;93185.97;;;8.22;86.55
18137;BME280;9194;42.632;23.298;2024-02-21T09:23:26;93184.47;;;8.00;90.78
18137;BME280;9194;42.632;23.298;2024-02-21T09:28:27;93180.06;;;7.94;90.03
18137;BME280;9194;42.632;23.298;2024-02-21T09:33:28;93181.63;;;8.29;89.32
18137;BME280;9194;42.632;23.298;2024-02-21T09:38:29;93192.72;;;8.44;87.76
18137;BME280;9194;42.632;23.298;2024-02-21T09:43:30;93185.59;;;8.25;89.29
18137;BME280;9194;42.632;23.298;2024-02-21T09:53:54;93185.09;;;8.02;87.42
18137;BME280;9194;42.632;23.298;2024-02-21T09:58:57;93194.97;;;8.19;87.37
18137;BME280;9194;42.632;23.298;2024-02-21T10:03:58;93186.41;;;8.25;91.64
18137;BME280;9194;42.632;23.298;2024-02-21T10:08:59;93187.06;;;8.00;95.58
18137;BME280;9194;42.632;23.298;2024-02-21T10:14:07;93180.25;;;8.33;88.83
18137;BME280;9194;42.632;23.298;2024-02-21T10:19:19;93166.19;;;8.62;85.82
18137;BME280;9194;42.632;23.298;2024-02-21T10:24:26;93169.59;;;8.69;80.04
18137;BME280;9194;42.632;23.298;2024-02-21T10:29:28;93161.84;;;8.76;79.74
18137;BME280;9194;42.632;23.298;2024-02-21T10:34:29;93141.69;;;8.78;79.20
18137;BME280;9194;42.632;23.298;2024-02-21T10:39:35;93130.09;;;8.60;84.09
18137;BME280;9194;42.632;23.298;2024-02-21T10:44:40;93123.13;;;8.94;81.77
18137;BME280;9194;42.632;23.298;2024-02-21T10:49:44;93126.69;;;8.67;78.37
18137;BME280;9194;42.632;23.298;2024-02-21T10:55:10;93111.72;;;8.75;77.34
18137;BME280;9194;42.632;23.298;2024-02-21T11:00:17;93105.75;;;8.88;75.16
18137;BME280;9194;42.632;23.298;2024-02-21T11:05:18;93105.56;;;9.09;74.45
18137;BME280;9194;42.632;23.298;2024-02-21T11:10:24;93101.34;;;9.41;70.88
18137;BME280;9194;42.632;23.298;2024-02-21T11:15:26;93096.16;;;9.41;70.28
18137;BME280;9194;42.632;23.298;2024-02-21T11:20:35;93103.94;;;9.47;70.94
18137;BME280;9194;42.632;23.298;2024-02-21T11:25:37;93086.75;;;9.53;71.81
18137;BME280;9194;42.632;23.298;2024-02-21T11:30:39;93081.72;;;9.71;69.77
18137;BME280;9194;42.632;23.298;2024-02-21T11:35:40;93089.75;;;9.43;71.08
18137;BME280;9194;42.632;23.298;2024-02-21T11:40:44;93074.91;;;9.70;67.96
18137;BME280;9194;42.632;23.298;2024-02-21T11:45:46;93066.94;;;9.59;68.62
18137;BME280;9194;42.632;23.298;2024-02-21T11:50:54;93069.00;;;9.17;69.90
18137;BME280;9194;42.632;23.298;2024-02-21T11:55:56;93067.81;;;9.06;72.95
18137;BME280;9194;42.632;23.298;2024-02-21T12:00:58;93070.59;;;8.85;76.69
18137;BME280;9194;42.632;23.298;2024-02-21T12:05:59;93074.19;;;8.71;76.99
18137;BME280;9194;42.632;23.298;2024-02-21T12:11:00;93071.81;;;8.76;77.62
18137;BME280;9194;42.632;23.298;2024-02-21T12:16:02;93065.00;;;8.75;76.15
18137;BME280;9194;42.632;23.298;2024-02-21T12:21:04;93059.03;;;8.61;75.70
18137;BME280;9194;42.632;23.298;2024-02-21T12:26:05;93052.03;;;8.55;77.27
18137;BME280;9194;42.632;23.298;2024-02-21T12:31:07;93056.00;;;8.38;81.56
18137;BME280;9194;42.632;23.298;2024-02-21T12:36:08;93056.72;;;8.19;83.33
18137;BME280;9194;42.632;23.298;2024-02-21T12:41:09;93042.16;;;8.24;83.78
18137;BME280;9194;42.632;23.298;2024-02-21T12:46:11;93039.66;;;8.57;85.12
18137;BME280;9194;42.632;23.298;2024-02-21T12:51:12;93033.88;;;8.49;82.62
18137;BME280;9194;42.632;23.298;2024-02-21T12:56:13;93035.66;;;8.48;81.83
18137;BME280;9194;42.632;23.298;2024-02-21T13:01:14;93029.91;;;8.79;77.46
18137;BME280;9194;42.632;23.298;2024-02-21T13:06:16;93020.69;;;8.90;74.10
18137;BME280;9194;42.632;23.298;2024-02-21T13:11:18;93014.66;;;9.22;70.13
18137;BME280;9194;42.632;23.298;2024-02-21T13:16:19;93007.44;;;9.31;67.16
18137;BME280;9194;42.632;23.298;2024-02-21T13:21:20;93010.69;;;9.20;71.07
18137;BME280;9194;42.632;23.298;2024-02-21T13:26:21;93013.47;;;9.12;73.17
18137;BME280;9194;42.632;23.298;2024-02-21T13:31:22;93002.72;;;9.08;74.65
18137;BME280;9194;42.632;23.298;2024-02-21T13:36:24;93003.50;;;8.62;87.42
18137;BME280;9194;42.632;23.298;2024-02-21T13:41:25;93001.13;;;8.54;89.47
18137;BME280;9194;42.632;23.298;2024-02-21T13:46:27;93015.81;;;8.14;91.63
18137;BME280;9194;42.632;23.298;2024-02-21T13:51:28;93018.53;;;7.80;95.11
18137;BME280;9194;42.632;23.298;2024-02-21T13:56:30;93026.88;;;7.28;100.00
18137;BME280;9194;42.632;23.298;2024-02-21T14:01:32;93023.19;;;6.81;100.00
18137;BME280;9194;42.632;23.298;2024-02-21T14:06:33;93019.97;;;6.79;100.00
18137;BME280;9194;42.632;23.298;2024-02-21T14:11:34;93017.81;;;6.83;100.00
18137;BME280;9194;42.632;23.298;2024-02-21T14:16:35;93018.19;;;6.80;100.00
18137;BME280;9194;42.632;23.298;2024-02-21T14:21:36;93015.28;;;6.89;100.00
18137;BME280;9194;42.632;23.298;2024-02-21T14:26:38;93016.81;;;6.84;100.00
18137;BME280;9194;42.632;23.298;2024-02-21T14:31:42;93016.25;;;6.88;100.00
18137;BME280;9194;42.632;23.298;2024-02-21T14:36:43;93009.25;;;6.82;100.00
18137;BME280;9194;42.632;23.298;2024-02-21T14:41:44;93002.09;;;6.84;100.00
18137;BME280;9194;42.632;23.298;2024-02-21T14:46:46;93006.06;;;6.80;100.00
18137;BME280;9194;42.632;23.298;2024-02-21T14:51:47;93007.63;;;6.75;100.00
18137;BME280;9194;42.632;23.298;2024-02-21T14:56:49;93002.91;;;6.57;100.00
18137;BME280;9194;42.632;23.298;2024-02-21T15:01:50;93013.25;;;6.36;100.00
18137;BME280;9194;42.632;23.298;2024-02-21T15:06:51;93026.38;;;6.13;100.00
18137;BME280;9194;42.632;23.298;2024-02-21T15:11:53;93017.53;;;5.86;100.00
18137;BME280;9194;42.632;23.298;2024-02-21T15:16:54;93024.59;;;5.42;100.00
18137;BME280;9194;42.632;23.298;2024-02-21T15:21:55;93019.06;;;5.15;100.00
18137;BME280;9194;42.632;23.298;2024-02-21T15:26:56;93015.88;;;5.13;100.00
18137;BME280;9194;42.632;23.298;2024-02-21T15:31:58;93010.88;;;4.97;100.00
18137;BME280;9194;42.632;23.298;2024-02-21T15:36:59;93012.78;;;4.88;100.00
18137;BME280;9194;42.632;23.298;2024-02-21T15:42:00;93016.75;;;4.91;100.00
18137;BME280;9194;42.632;23.298;2024-02-21T15:47:01;93011.59;;;4.91;100.00
18137;BME280;9194;42.632;23.298;2024-02-21T15:52:03;93015.63;;;4.93;100.00
18137;BME280;9194;42.632;23.298;2024-02-21T15:57:05;93012.78;;;4.88;100.00
18137;BME280;9194;42.632;23.298;2024-02-21T16:02:08;93019.25;;;4.84;100.00
18137;BME280;9194;42.632;23.298;2024-02-21T16:07:09;93024.13;;;4.79;100.00
18137;BME280;9194;42.632;23.298;2024-02-21T16:12:11;93021.72;;;4.78;100.00
18137;BME280;9194;42.632;23.298;2024-02-21T16:17:12;93030.97;;;4.72;100.00
18137;BME280;9194;42.632;23.298;2024-02-21T16:22:14;93038.94;;;4.63;100.00
18137;BME280;9194;42.632;23.298;2024-02-21T16:27:15;93041.97;;;4.51;100.00
18137;BME280;9194;42.632;23.298;2024-02-21T16:32:17;93048.16;;;4.42;100.00
18137;BME280;9194;42.632;23.298;2024-02-21T16:37:18;93054.28;;;4.41;100.00
18137;BME280;9194;42.632;23.298;2024-02-21T16:42:19;93058.53;;;4.34;100.00
18137;BME280;9194;42.632;23.298;2024-02-21T16:47:21;93059.75;;;4.24;100.00
18137;BME280;9194;42.632;23.298;2024-02-21T16:52:25;93064.41;;;4.20;100.00
18137;BME280;9194;42.632;23.298;2024-02-21T16:57:27;93071.34;;;4.20;100.00
18137;BME280;9194;42.632;23.298;2024-02-21T17:02:28;93081.19;;;4.16;100.00
18137;BME280;9194;42.632;23.298;2024-02-21T17:07:30;93094.06;;;4.16;100.00
18137;BME280;9194;42.632;23.298;2024-02-21T17:12:32;93092.44;;;4.23;100.00
18137;BME280;9194;42.632;23.298;2024-02-21T17:17:34;93090.59;;;4.32;100.00
18137;BME280;9194;42.632;23.298;2024-02-21T17:22:38;93093.50;;;4.51;100.00
18137;BME280;9194;42.632;23.298;2024-02-21T17:27:39;93100.19;;;4.61;100.00
18137;BME280;9194;42.632;23.298;2024-02-21T17:32:41;93104.84;;;4.65;100.00
18137;BME280;9194;42.632;23.298;2024-02-21T17:37:42;93107.22;;;4.67;100.00
18137;BME280;9194;42.632;23.298;2024-02-21T17:42:43;93107.44;;;4.80;100.00
18137;BME280;9194;42.632;23.298;2024-02-21T17:47:45;93120.19;;;4.81;100.00
18137;BME280;9194;42.632;23.298;2024-02-21T17:52:46;93127.16;;;4.73;100.00
18137;BME280;9194;42.632;23.298;2024-02-21T17:57:47;93132.03;;;4.68;100.00
18137;BME280;9194;42.632;23.298;2024-02-21T18:02:50;93137.28;;;4.60;100.00
18137;BME280;9194;42.632;23.298;2024-02-21T18:07:52;93131.88;;;4.46;100.00
18137;BME280;9194;42.632;23.298;2024-02-21T18:12:53;93129.34;;;4.38;100.00
18137;BME280;9194;42.632;23.298;2024-02-21T18:17:55;93142.91;;;4.32;100.00
18137;BME280;9194;42.632;23.298;2024-02-21T18:22:58;93137.78;;;4.32;100.00
18137;BME280;9194;42.632;23.298;2024-02-21T18:27:59;93138.75;;;4.31;100.00
18137;BME280;9194;42.632;23.298;2024-02-21T18:33:01;93130.03;;;4.32;100.00
18137;BME280;9194;42.632;23.298;2024-02-21T18:38:03;93142.19;;;4.24;100.00
18137;BME280;9194;42.632;23.298;2024-02-21T18:43:04;93133.94;;;4.28;100.00
18137;BME280;9194;42.632;23.298;2024-02-21T18:48:06;93140.03;;;4.35;100.00
18137;BME280;9194;42.632;23.298;2024-02-21T18:53:08;93135.56;;;4.29;100.00
18137;BME280;9194;42.632;23.298;2024-02-21T18:58:09;93133.97;;;4.20;100.00
18137;BME280;9194;42.632;23.298;2024-02-21T19:03:10;93140.63;;;4.14;100.00
18137;BME280;9194;42.632;23.298;2024-02-21T19:08:12;93145.22;;;3.96;100.00
18137;BME280;9194;42.632;23.298;2024-02-21T19:13:14;93137.31;;;3.98;100.00
18137;BME280;9194;42.632;23.298;2024-02-21T19:18:15;93132.91;;;3.84;100.00
18137;BME280;9194;42.632;23.298;2024-02-21T19:23:16;93142.94;;;3.70;100.00
18137;BME280;9194;42.632;23.298;2024-02-21T19:28:17;93142.94;;;3.70;100.00
18137;BME280;9194;42.632;23.298;2024-02-21T19:33:20;93137.47;;;3.65;100.00
18137;BME280;9194;42.632;23.298;2024-02-21T19:38:21;93146.16;;;3.64;100.00
18137;BME280;9194;42.632;23.298;2024-02-21T19:43:27;93146.44;;;3.78;100.00
18137;BME280;9194;42.632;23.298;2024-02-21T19:48:28;93145.22;;;3.57;100.00
18137;BME280;9194;42.632;23.298;2024-02-21T19:53:30;93153.00;;;3.49;100.00
18137;BME280;9194;42.632;23.298;2024-02-21T19:58:33;93147.91;;;3.25;100.00
18137;BME280;9194;42.632;23.298;2024-02-21T20:03:34;93147.41;;;3.21;100.00
18137;BME280;9194;42.632;23.298;2024-02-21T20:08:35;93145.63;;;3.22;100.00
18137;BME280;9194;42.632;23.298;2024-02-21T20:13:37;93144.97;;;3.28;100.00
18137;BME280;9194;42.632;23.298;2024-02-21T20:18:38;93131.97;;;3.29;100.00
18137;BME280;9194;42.632;23.298;2024-02-21T20:23:39;93136.31;;;3.29;100.00
18137;BME280;9194;42.632;23.298;2024-02-21T20:28:40;93132.75;;;3.30;100.00
18137;BME280;9194;42.632;23.298;2024-02-21T20:33:42;93119.91;;;3.30;100.00
18137;BME280;9194;42.632;23.298;2024-02-21T20:38:43;93106.69;;;3.41;100.00
18137;BME280;9194;42.632;23.298;2024-02-21T20:43:45;93106.69;;;3.41;100.00
18137;BME280;9194;42.632;23.298;2024-02-21T20:48:46;93084.63;;;3.47;100.00
18137;BME280;9194;42.632;23.298;2024-02-21T20:53:47;93071.59;;;3.48;100.00
18137;BME280;9194;42.632;23.298;2024-02-21T20:58:49;93072.41;;;3.49;100.00
18137;BME280;9194;42.632;23.298;2024-02-21T21:03:50;93069.84;;;3.49;100.00
18137;BME280;9194;42.632;23.298;2024-02-21T21:08:51;93063.66;;;3.58;100.00
18137;BME280;9194;42.632;23.298;2024-02-21T21:13:52;93069.94;;;3.55;100.00
18137;BME280;9194;42.632;23.298;2024-02-21T21:18:54;93083.44;;;3.57;100.00
18137;BME280;9194;42.632;23.298;2024-02-21T21:23:55;93076.41;;;3.51;100.00
18137;BME280;9194;42.632;23.298;2024-02-21T21:28:56;93079.31;;;3.48;100.00
18137;BME280;9194;42.632;23.298;2024-02-21T21:33:58;93065.38;;;3.26;100.00
18137;BME280;9194;42.632;23.298;2024-02-21T21:38:59;93084.41;;;3.17;100.00
18137;BME280;9194;42.632;23.298;2024-02-21T21:44:01;93085.72;;;2.97;100.00
18137;BME280;9194;42.632;23.298;2024-02-21T21:49:02;93090.59;;;2.84;100.00
18137;BME280;9194;42.632;23.298;2024-02-21T21:54:04;93091.28;;;2.62;100.00
18137;BME280;9194;42.632;23.298;2024-02-21T21:59:07;93086.28;;;2.52;100.00
18137;BME280;9194;42.632;23.298;2024-02-21T22:04:12;93087.72;;;2.30;100.00
18137;BME280;9194;42.632;23.298;2024-02-21T22:09:13;93094.13;;;2.18;100.00
18137;BME280;9194;42.632;23.298;2024-02-21T22:14:14;93093.97;;;2.12;100.00
18137;BME280;9194;42.632;23.298;2024-02-21T22:19:16;93085.91;;;1.98;100.00
18137;BME280;9194;42.632;23.298;2024-02-21T22:24:17;93085.28;;;1.88;100.00
18137;BME280;9194;42.632;23.298;2024-02-21T22:29:20;93076.25;;;1.76;100.00
18137;BME280;9194;42.632;23.298;2024-02-21T22:34:21;93093.75;;;1.73;100.00
18137;BME280;9194;42.632;23.298;2024-02-21T22:39:24;93081.22;;;1.70;100.00
18137;BME280;9194;42.632;23.298;2024-02-21T22:44:25;93090.03;;;1.67;100.00
18137;BME280;9194;42.632;23.298;2024-02-21T22:49:27;93079.25;;;1.55;100.00
18137;BME280;9194;42.632;23.298;2024-02-21T22:54:28;93081.84;;;1.55;100.00
18137;BME280;9194;42.632;23.298;2024-02-21T22:59:29;93074.72;;;1.41;100.00
18137;BME280;9194;42.632;23.298;2024-02-21T23:04:31;93080.16;;;1.38;100.00
18137;BME280;9194;42.632;23.298;2024-02-21T23:09:32;93076.63;;;1.31;100.00
18137;BME280;9194;42.632;23.298;2024-02-21T23:14:34;93075.13;;;1.20;100.00
18137;BME280;9194;42.632;23.298;2024-02-21T23:19:35;93090.38;;;1.22;100.00
18137;BME280;9194;42.632;23.298;2024-02-21T23:24:37;93084.59;;;1.20;100.00
18137;BME280;9194;42.632;23.298;2024-02-21T23:29:38;93077.34;;;1.15;100.00
18137;BME280;9194;42.632;23.298;2024-02-21T23:34:39;93085.84;;;1.16;100.00
18137;BME280;9194;42.632;23.298;2024-02-21T23:39:40;93078.59;;;1.11;100.00
18137;BME280;9194;42.632;23.298;2024-02-21T23:44:41;93068.66;;;1.08;100.00
18137;BME280;9194;42.632;23.298;2024-02-21T23:49:43;93064.03;;;1.12;100.00
18137;BME280;9194;42.632;23.298;2024-02-21T23:54:44;93059.03;;;1.02;100.00
18137;BME280;9194;42.632;23.298;2024-02-21T23:59:45;93053.09;;;1.02;100.00
